Совет ADS-B приемник

Victel

Пользователь
Сообщения
61
Репутация
8
Баллы
8
liveATC,дешевых приемников -увы,нет на рынке.(возможно какой-нибудь энтузиаст "прикрутит" софверно ASTERIX к свистку RTL...)
 

ultra_novice

Участник
Сообщения
202
Репутация
13
Баллы
18
Да интересный приёмник , но за тысячу евро , я сейчас не готов приобрести . Меня интересует есть ли приёмники которые сейчас доступны , и пустить эти данные на программу отображения воздушной обстановки под протокол ASTERIX , я не исключаю что это можно даже подключить к КСА , но понимая что это достаточно проблемно .
Обыкновенные приёмники типа "свистка" выдают данные в "сыром" виде. Их обрабатывают сторонним софтом(консольный "modesmixer2" вроде), который и выдаёт данные или на ФР24, или на Virtual Radar.
 

kochetov

Участник
Сообщения
106
Репутация
6
Баллы
18
если в вашей зоне нет покрытия FR24 или аналогичного сервиса , можно попробывать списаться с ними о предоставления приемника с выдачей им данных, а свободный порт использовать самому
--- Сообщение автоматически объединено: ---

рекомендации https://www.flightradar24.com/build-your-own
 
Последнее редактирование:

]{@DMiy

Пользователь
Сообщения
15
Репутация
3
Баллы
3
Адрес
USCM
Род занятий
Сменный инженер службы ЭРТОС
Не думаю , что за это могут посадить...
Тогда нужна конкретика, что, откуда и куда вы собираетесь засылать. Из вашего сообщения понял, что данные поступающие по протоколу ASTERIX от РЛ засылать на сервисы типа fr24.
 

DeLaVoro

Новичок
Сообщения
8
Репутация
0
Баллы
1
Адрес
UELL (NER)
Род занятий
Инженер СЭРТОС
если в вашей зоне нет покрытия FR24 или аналогичного сервиса , можно попробывать списаться с ними о предоставления приемника с выдачей им данных, а свободный порт использовать самому
рекомендации https://www.flightradar24.com/build-your-own
В целом конечно, можно получить готовый приемник от FR24 (это по факту RadarCape приемник) и использовать поток данных с него в с своих целях, но для этого придется написать свой софт, обрабатывающий эти данные. Или "прикрутить" какой-либо из уже существующих. Но это еще та задача по уровню сложности...
 

kochetov

Участник
Сообщения
106
Репутация
6
Баллы
18
софт есть , там целый порт есть для этого по ethernet выдаст, мы пользовались virtualradar
 

LiveATC

Новичок
Сообщения
8
Репутация
1
Баллы
3
Адрес
СССР / Ленинград
На просторах интернета приглядел программку отображения воздушного движения использующая режим ADS-B , программка достаточно информативная , есть данные по самолётам и погоду даёт , есть возможность работы с двумя окнами . Причём программа эта на китайском сайте лежит , ни где её на других сайтах не видно . Возникли вопросы, что за программа , с какими приёмниками она работает и работает ли она в протоколе ASTERIX.
 

Вложения

kochetov

Участник
Сообщения
106
Репутация
6
Баллы
18
MSG,4,333,1,4000FB,101,2021/02/17,02:36:54.023,2021/02/17,02:36:54.023,,,452.0,260.8,,,0,,,,,
MSG,4,333,2,4248F5,102,2021/02/17,02:36:54.038,2021/02/17,02:36:54.038,,,390.0,78.9,,,0,,,,,
MSG,4,333,5,A9FA34,105,2021/02/17,02:36:54.221,2021/02/17,02:36:54.221,,,487.0,229.7,,,0,,,,,
MSG,3,333,2,4248F5,102,2021/02/17,02:36:54.337,2021/02/17,02:36:54.337,,34975,,,52.51314,153.45268,,,0,0,0,0
MSG,3,333,1,4000FB,101,2021/02/17,02:36:54.365,2021/02/17,02:36:54.365,,38000,,,52.76523,155.74554,,,0,0,0,0
MSG,6,333,1,4000FB,101,2021/02/17,02:36:54.408,2021/02/17,02:36:54.408,,38000,,,,,,6653,0,0,0,0
MSG,4,333,1,4000FB,101,2021/02/17,02:36:54.446,2021/02/17,02:36:54.446,,,452.0,260.8,,,0,,,,,
MSG,8,333,1,4000FB,101,2021/02/17,02:36:54.504,2021/02/17,02:36:54.504,,,,,,,,,,,,0
MSG,4,333,2,4248F5,102,2021/02/17,02:36:54.613,2021/02/17,02:36:54.613,,,390.0,78.8,,,0,,,,,
MSG,8,333,2,4248F5,102,2021/02/17,02:36:54.650,2021/02/17,02:36:54.650,,,,,,,,,,,,0
MSG,5,333,1,4000FB,101,2021/02/17,02:36:54.724,2021/02/17,02:36:54.724,,38000,,,,,,,0,,0,0
MSG,3,333,5,A9FA34,105,2021/02/17,02:36:54.790,2021/02/17,02:36:54.790,,40000,,,52.76894,156.17424,,,0,0,0,0
MSG,3,333,2,4248F5,102,2021/02/17,02:36:54.817,2021/02/17,02:36:54.817,,34975,,,52.51330,153.45405,,,0,0,0,0
MSG,8,333,5,A9FA34,105,2021/02/17,02:36:54.901,2021/02/17,02:36:54.901,,,,,,,,,,,,0
MSG,3,333,1,4000FB,101,2021/02/17,02:36:54.946,2021/02/17,02:36:54.946,,38000,,,52.76505,155.74352,,,0,0,0,0
MSG,4,333,1,4000FB,101,2021/02/17,02:36:55.012,2021/02/17,02:36:55.012,,,452.0,260.8,,,0,,,,,
MSG,4,333,5,A9FA34,105,2021/02/17,02:36:55.150,2021/02/17,02:36:55.150,,,487.0,229.7,,,64,,,,,
MSG,4,333,2,4248F5,102,2021/02/17,02:36:55.151,2021/02/17,02:36:55.151,,,390.0,78.8,,,0,,,,,
MSG,3,333,2,4248F5,102,2021/02/17,02:36:55.269,2021/02/17,02:36:55.269,,35000,,,52.51346,153.45535,,,0,0,0,0
MSG,8,333,2,4248F5,102,2021/02/17,02:36:55.461,2021/02/17,02:36:55.461,,,,,,,,,,,,0
MSG,3,333,1,4000FB,101,2021/02/17,02:36:55.526,2021/02/17,02:36:55.526,,38000,,,52.76487,155.74164,,,0,0,0,0
MSG,4,333,1,4000FB,101,2021/02/17,02:36:55.569,2021/02/17,02:36:55.569,,,453.0,260.8,,,0,,,,,
MSG,8,333,1,4000FB,101,2021/02/17,02:36:55.617,2021/02/17,02:36:55.617,,,,,,,,,,,,0
MSG,3,333,5,A9FA34,105,2021/02/17,02:36:55.690,2021/02/17,02:36:55.690,,40000,,,52.76761,156.17167,,,0,0,0,0
MSG,4,333,2,4248F5,102,2021/02/17,02:36:55.703,2021/02/17,02:36:55.703,,,390.0,78.8,,,64,,,,,
MSG,5,333,1,4000FB,101,2021/02/17,02:36:55.735,2021/02/17,02:36:55.735,,38000,,,,,,,0,,0,0
MSG,3,333,2,4248F5,102,2021/02/17,02:36:55.850,2021/02/17,02:36:55.850,,34975,,,52.51367,153.45711,,,0,0,0,0
MSG,3,333,1,4000FB,101,2021/02/17,02:36:56.105,2021/02/17,02:36:56.105,,38000,,,52.76468,155.73959,,,0,0,0,0
MSG,4,333,2,4248F5,102,2021/02/17,02:36:56.156,2021/02/17,02:36:56.156,,,390.0,78.8,,,64,,,,,
MSG,4,333,1,4000FB,101,2021/02/17,02:36:56.161,2021/02/17,02:36:56.161,,,453.0,260.8,,,0,,,,,
MSG,4,333,5,A9FA34,105,2021/02/17,02:36:56.270,2021/02/17,02:36:56.270,,,487.0,229.7,,,0,,,,,
MSG,8,333,2,4248F5,102,2021/02/17,02:36:56.325,2021/02/17,02:36:56.325,,,,,,,,,,,,0
MSG,3,333,2,4248F5,102,2021/02/17,02:36:56.356,2021/02/17,02:36:56.356,,34975,,,52.51381,153.45852,,,0,0,0,0
MSG,8,333,1,4000FB,101,2021/02/17,02:36:56.498,2021/02/17,02:36:56.498,,,,,,,,,,,,0
MSG,3,333,1,4000FB,101,2021/02/17,02:36:56.559,2021/02/17,02:36:56.559,,38000,,,52.76449,155.73803,,,0,0,0,0
MSG,3,333,5,A9FA34,105,2021/02/17,02:36:56.580,2021/02/17,02:36:56.580,,40000,,,52.76614,156.16882,,,0,0,0,0
MSG,4,333,2,4248F5,102,2021/02/17,02:36:56.662,2021/02/17,02:36:56.662,,,390.0,78.8,,,0,,,,,
MSG,4,333,1,4000FB,101,2021/02/17,02:36:56.682,2021/02/17,02:36:56.682,,,453.0,260.8,,,0,,,,,
MSG,5,333,1,4000FB,101,2021/02/17,02:36:56.730,2021/02/17,02:36:56.730,,38000,,,,,,,0,,0,0
MSG,8,333,5,A9FA34,105,2021/02/17,02:36:56.826,2021/02/17,02:36:56.826,,,,,,,,,,,,0
MSG,3,333,2,4248F5,102,2021/02/17,02:36:56.848,2021/02/17,02:36:56.848,,35000,,,52.51400,153.45993,,,0,0,0,0
MSG,1,333,1,4000FB,101,2021/02/17,02:36:57.002,2021/02/17,02:36:57.002,380,,,,,,,,,,,
MSG,3,333,1,4000FB,101,2021/02/17,02:36:57.091,2021/02/17,02:36:57.091,,38000,,,52.76431,155.73624,,,0,0,0,0
MSG,4,333,2,4248F5,102,2021/02/17,02:36:57.166,2021/02/17,02:36:57.166,,,390.0,78.8,,,0,,,,,
MSG,4,333,1,4000FB,101,2021/02/17,02:36:57.225,2021/02/17,02:36:57.225,,,453.0,260.8,,,0,,,,,
MSG,4,333,5,A9FA34,105,2021/02/17,02:36:57.300,2021/02/17,02:36:57.300,,,487.0,229.7,,,0,,,,,
MSG,8,333,2,4248F5,102,2021/02/17,02:36:57.350,2021/02/17,02:36:57.350,,,,,,,,,,,,0
MSG,3,333,2,4248F5,102,2021/02/17,02:36:57.376,2021/02/17,02:36:57.376,,34975,,,52.51419,153.46153,,,0,0,0,0
MSG,8,333,1,4000FB,101,2021/02/17,02:36:57.480,2021/02/17,02:36:57.480,,,,,,,,,,,,0
MSG,3,333,5,A9FA34,105,2021/02/17,02:36:57.500,2021/02/17,02:36:57.500,,40000,,,52.76500,156.16661,,,0,0,0,0
MSG,3,333,1,4000FB,101,2021/02/17,02:36:57.516,2021/02/17,02:36:57.516,,38000,,,52.76418,155.73471,,,0,0,0,0
MSG,4,333,1,4000FB,101,2021/02/17,02:36:57.675,2021/02/17,02:36:57.675,,,453.0,260.8,,,0,,,,,
MSG,6,333,2,4248F5,102,2021/02/17,02:36:57.677,2021/02/17,02:36:57.677,,34975,,,,,,0204,0,0,0,0
MSG,1,333,2,4248F5,102,2021/02/17,02:36:57.687,2021/02/17,02:36:57.687,SHU5684,,,,,,,,,,,
MSG,5,333,1,4000FB,101,2021/02/17,02:36:57.733,2021/02/17,02:36:57.733,,38000,,,,,,,0,,0,0
MSG,4,333,2,4248F5,102,2021/02/17,02:36:57.739,2021/02/17,02:36:57.739,,,390.0,78.8,,,-64,,,,,
MSG,3,333,2,4248F5,102,2021/02/17,02:36:57.899,2021/02/17,02:36:57.899,,35000,,,52.51437,153.46300,,,0,0,0,0
MSG,3,333,1,4000FB,101,2021/02/17,02:36:58.042,2021/02/17,02:36:58.042,,38000,,,52.76398,155.73293,,,0,0,0,0
MSG,4,333,1,4000FB,101,2021/02/17,02:36:58.099,2021/02/17,02:36:58.099,,,453.0,260.8,,,0,,,,,
MSG,6,333,5,A9FA34,105,2021/02/17,02:36:58.116,2021/02/17,02:36:58.116,,40000,,,,,,4050,0,0,0,0
MSG,8,333,2,4248F5,102,2021/02/17,02:36:58.167,2021/02/17,02:36:58.167,,,,,,,,,,,,0
MSG,4,333,5,A9FA34,105,2021/02/17,02:36:58.200,2021/02/17,02:36:58.200,,,488.0,229.7,,,0,,,,,
MSG,4,333,2,4248F5,102,2021/02/17,02:36:58.243,2021/02/17,02:36:58.243,,,390.0,78.8,,,0,,,,,
MSG,8,333,1,4000FB,101,2021/02/17,02:36:58.311,2021/02/17,02:36:58.311,,,,,,,,,,,,0
MSG,3,333,2,4248F5,102,2021/02/17,02:36:58.464,2021/02/17,02:36:58.464,,35000,,,52.51456,153.46456,,,0,0,0,0
вот что идет с приемника по 30003 порту
а вот что по raw 30334
╩К►♦┬M╧Ф3╪ЯН@√Щ _▄mН@√X├ЖМ4(╓*H3 _уOНBHїЩ Е 8♦╟A2^3 _ч-НBHїX│ЎwбёDVy░2 _шь'<T3 _ш╟Н@√сЮ*↕р2
2╠U(╚Ф3Ф`РНBHїъDxX☺vкС3├`М*(╝╖y(3їQНй·4Щ`♦uНBHїX│є(Н@√°#♥I╕♦╤О3 _ўЛН@√Щ
↕НBHїЩ Е 8♦╟A2^2 `
ф]BHї♥;'2 `
§Ь╛┐ ▄3 `↓BНй·4°!☻I╕N_┼3 `┐Нй·4X═Жj·DA`x╘3 `▲^НBHїX│Ўwлёb"Цз2 `$╪]@√¶#Ў3 `*ДНBHїЩ Е 0♦╟/РV3 `*▓ДШ☻cЧ╚+►p╓ъ╒№d2 `,l☻сШ8W[ъ3
╩К►♦┬M╧Ф28Н@√X├Ж`Dє]BHї♥;'3 `HТНBHїЩ Е 0♦╟/РV3 `T┌НBHїъDxX☺vкС3 `VНBHїX│Ўw╣ёГ▲╩,3 `[╗Нй·4Xj║D↔щлd3 `hНBHїЩ Е ╟g╩V2 `jk]й·4ЮГ╛3 `m╧Н@√X├Г!ўuЮХ2 `mО☻сШ8W[ъ3 `mЬН@√ъJXX☺"↨¶3 `o┬НBHї°#♥I╕Y3
`sмНBHїX│Ўw┐ёХ2ў_3 `t╤Нй·4ъN8fЭ╫KЕ3 `t!Жi╙└Нt╕S╖╜хgC3 `t┌Нй·4Щ§oзbи2 `tj)ф¤їьД~2 `wBHї♥;'3
╩К♦┬#mЬ2═В!k[У(3`Ж↓&тН3 `ЗNНBHїЩ Е ╟g╩V3 `РмНBHїX│Ўw┼ёеT∟╓3 `С3Нй·4Щ§oзp♦╛┐╨║3 `Ф♠Н@√°#♥I╕♦╤О3
`ЦНй·4X═В!Y♦zЁ2 `а┴]й·4ЮГ╛3 `гхНBHїЩ Е ╟g╩V3 `гДШ♦c│х+¶lўА↨й{3 `ж╚НBHїъDxX☺vкС2 `й█]@√¶#3 `йьНBHїX│Ўw╦ё╢щOТ3 `мН@√X├ЖМ(E}/&2 `мЪ☻сШ8W[ъ3 `о°Нй·4X═В!JA№╦3 `│╢Нй·4Щ§oзp♦╛┐╨║3 `╡╡Нй·4°╩К♦┬#mЬ2 `┼╜]BHї♥;'3 `╞╕Нй·4ъN8fЭ╫KЕ3 `╚╪НBHїX│Ўw╙ё╞X
В3 `╬{Нй·4X═В!<*3 `╤╔Нй·4Щ§oзp♦╛┐╨║2
h╠тєЙ╨3Ю`эeНBHїс`фxНBHїЩyК▓3 `э▒Нй·4X═Жj,C╠#го3╩Н@√X├`э'Нй·4Щ§oзp♦╛┐╨║3╜НBHїX`єЬНBHїъDxX☺vкС3 a

смотрел просто telnet на порт
--- Сообщение автоматически объединено: ---

На просторах интернета приглядел программку отображения воздушного движения использующая режим ADS-B , программка достаточно информативная , есть данные по самолётам и погоду даёт , есть возможность работы с двумя окнами . Причём программа эта на китайском сайте лежит , ни где её на других сайтах не видно . Возникли вопросы, что за программа , с какими приёмниками она работает и работает ли она в протоколе ASTERIX.
ссылку можно?
 

LiveATC

Новичок
Сообщения
8
Репутация
1
Баллы
3
Адрес
СССР / Ленинград
 

kochetov

Участник
Сообщения
106
Репутация
6
Баллы
18
jetview является платным программным обеспечением :mad:
 

LiveATC

Новичок
Сообщения
8
Репутация
1
Баллы
3
Адрес
СССР / Ленинград
Не знал , очень жаль . Интересно какова её стоимость ?
Списался с владельцами программы отображения ADS-B Jetview , вот что они ответили :
Thanks for your inquiry. Jetview software is not regularly maintained. We have a new software to replace. So we can still sell. But, could you please indicate how would you like to use this software? We need to see whether our software can work or need modification.



Thanks and Best regards,
#####################################################
Shao Hongyi
GAeTech
www.gaetech.com.cn
 
Сверху Снизу